createdAt,value
2023-03-30T00:02:10.463Z,6.63
2023-03-30T00:05:13.847Z,7.20
2023-03-30T00:08:18.109Z,4.37
2023-03-30T00:11:23.001Z,6.27
2023-03-30T00:14:29.517Z,9.70
2023-03-30T00:17:31.100Z,8.47
2023-03-30T00:20:32.606Z,4.80
2023-03-30T00:23:34.117Z,6.17
2023-03-30T00:26:35.903Z,11.30
2023-03-30T00:29:37.297Z,9.27
2023-03-30T00:32:39.120Z,6.87
2023-03-30T00:35:40.639Z,8.77
2023-03-30T00:38:42.035Z,6.23
2023-03-30T00:41:43.468Z,5.63
2023-03-30T00:45:26.381Z,7.27
2023-03-30T00:48:37.262Z,5.60
2023-03-30T00:51:42.401Z,8.00
2023-03-30T00:54:43.905Z,5.87
2023-03-30T00:57:46.841Z,5.93
2023-03-30T01:00:48.604Z,7.77
2023-03-30T01:03:51.945Z,5.67
2023-03-30T01:06:55.107Z,8.40
2023-03-30T01:09:57.239Z,8.33
2023-03-30T01:12:59.888Z,10.67
2023-03-30T01:16:06.550Z,10.40
2023-03-30T01:19:45.872Z,9.93
2023-03-30T01:23:13.382Z,7.37
2023-03-30T01:26:43.094Z,8.30
2023-03-30T01:30:08.160Z,5.70
2023-03-30T01:33:41.705Z,8.50
2023-03-30T01:36:48.937Z,8.53
2023-03-30T01:40:05.587Z,6.77
2023-03-30T01:43:32.993Z,8.50
2023-03-30T01:46:41.093Z,10.77
2023-03-30T01:49:54.899Z,4.60
2023-03-30T01:53:25.577Z,7.93
2023-03-30T01:56:32.344Z,5.77
2023-03-30T01:59:39.964Z,5.73
2023-03-30T02:02:46.268Z,8.43
2023-03-30T02:05:52.811Z,8.57
2023-03-30T02:08:59.164Z,13.30
2023-03-30T02:12:03.086Z,7.73
2023-03-30T02:15:09.089Z,9.40
2023-03-30T02:18:10.832Z,7.73
2023-03-30T02:21:12.977Z,7.37
2023-03-30T02:24:19.198Z,6.23
2023-03-30T02:27:23.411Z,5.57
2023-03-30T02:30:24.827Z,5.23
2023-03-30T02:33:47.635Z,8.23
2023-03-30T02:37:09.925Z,8.90
2023-03-30T02:40:35.717Z,10.10
2023-03-30T02:43:49.741Z,12.97
2023-03-30T02:47:02.530Z,9.63
2023-03-30T02:50:21.113Z,9.50
2023-03-30T02:53:28.725Z,13.47
2023-03-30T02:56:45.123Z,10.07
2023-03-30T03:00:12.625Z,11.33
2023-03-30T03:03:19.845Z,10.43
2023-03-30T03:06:23.702Z,12.17
2023-03-30T03:09:28.989Z,8.30
2023-03-30T03:12:31.708Z,8.97
2023-03-30T03:15:33.112Z,6.90
2023-03-30T03:18:45.988Z,7.17
2023-03-30T03:21:47.468Z,7.57
2023-03-30T03:24:49.371Z,9.93
2023-03-30T03:28:17.353Z,9.83
2023-03-30T03:31:26.991Z,7.60
2023-03-30T03:34:31.508Z,10.23
2023-03-30T03:37:37.156Z,10.30
2023-03-30T03:40:38.991Z,13.00
2023-03-30T03:43:40.589Z,12.43
2023-03-30T03:46:42.095Z,8.50
2023-03-30T03:49:43.804Z,13.20
2023-03-30T03:52:45.314Z,12.23
2023-03-30T03:55:47.010Z,10.70
2023-03-30T03:58:48.408Z,12.80
2023-03-30T04:01:50.015Z,8.30
2023-03-30T04:04:52.295Z,9.47
2023-03-30T04:07:53.723Z,8.03
2023-03-30T04:10:55.555Z,8.83
2023-03-30T04:14:10.841Z,10.50
2023-03-30T04:17:36.817Z,12.60
2023-03-30T04:20:59.434Z,14.57
2023-03-30T04:24:29.614Z,10.80
2023-03-30T04:27:51.124Z,17.87
2023-03-30T04:31:10.504Z,13.83
2023-03-30T04:34:30.846Z,18.13
2023-03-30T04:38:02.394Z,18.10
2023-03-30T04:41:35.803Z,12.63
2023-03-30T04:45:06.033Z,12.73
2023-03-30T04:48:33.295Z,16.67
2023-03-30T04:51:56.061Z,14.47
2023-03-30T04:55:23.937Z,16.87
2023-03-30T04:58:44.930Z,16.43
2023-03-30T05:01:59.742Z,12.50
2023-03-30T05:05:09.242Z,14.90
2023-03-30T05:08:23.535Z,13.30
2023-03-30T05:11:44.884Z,7.57
2023-03-30T05:15:05.092Z,12.00
2023-03-30T05:18:26.767Z,16.10
2023-03-30T05:21:28.178Z,10.53
2023-03-30T05:24:48.215Z,12.23
2023-03-30T05:27:58.000Z,9.17
2023-03-30T05:31:13.645Z,16.33
2023-03-30T05:34:30.365Z,12.40
2023-03-30T05:37:38.979Z,12.20
2023-03-30T05:41:01.248Z,13.67
2023-03-30T05:44:23.262Z,12.80
2023-03-30T05:47:47.690Z,14.13
2023-03-30T05:51:04.382Z,15.80
2023-03-30T05:54:22.839Z,20.57
2023-03-30T05:57:42.891Z,16.40
2023-03-30T06:01:05.898Z,13.00
2023-03-30T06:04:13.207Z,18.63
2023-03-30T06:07:17.937Z,18.13
2023-03-30T06:10:19.741Z,21.20
2023-03-30T06:13:22.922Z,17.30
2023-03-30T06:16:26.571Z,18.33
2023-03-30T06:19:28.031Z,14.87
2023-03-30T06:22:31.428Z,17.17
2023-03-30T06:25:38.708Z,12.03
2023-03-30T06:28:41.179Z,13.87
2023-03-30T06:31:42.910Z,12.07
2023-03-30T06:35:03.909Z,11.97
2023-03-30T06:38:05.852Z,11.20
2023-03-30T06:41:09.868Z,14.80
2023-03-30T06:44:14.808Z,15.13
2023-03-30T06:47:16.501Z,17.43
2023-03-30T06:50:18.108Z,14.47
2023-03-30T06:53:32.390Z,13.23
2023-03-30T06:56:33.847Z,13.97
2023-03-30T06:59:47.523Z,9.83
2023-03-30T07:02:55.045Z,10.40
2023-03-30T07:06:02.611Z,9.50
2023-03-30T07:09:13.026Z,10.53
2023-03-30T07:12:15.303Z,9.83
2023-03-30T07:15:17.248Z,13.97
2023-03-30T07:18:19.296Z,14.20
2023-03-30T07:21:20.990Z,11.73
2023-03-30T07:24:22.538Z,12.77
2023-03-30T07:27:25.438Z,12.37
2023-03-30T07:30:31.387Z,15.47
2023-03-30T07:33:38.497Z,10.33
2023-03-30T07:36:41.700Z,14.70
2023-03-30T07:39:43.106Z,14.10
2023-03-30T07:42:45.270Z,11.53
2023-03-30T07:45:47.294Z,15.23
2023-03-30T07:48:56.422Z,7.87
2023-03-30T07:51:59.152Z,14.43
2023-03-30T07:55:08.946Z,12.23
2023-03-30T07:58:22.855Z,11.67
2023-03-30T08:01:24.307Z,12.90
2023-03-30T08:04:46.646Z,15.20
2023-03-30T08:07:51.911Z,12.63
2023-03-30T08:10:59.144Z,15.57
2023-03-30T08:14:00.621Z,13.90
2023-03-30T08:17:02.005Z,14.13
2023-03-30T08:20:08.671Z,18.67
2023-03-30T08:23:11.249Z,15.33
2023-03-30T08:26:12.707Z,14.20
2023-03-30T08:29:14.504Z,12.43
2023-03-30T08:32:16.157Z,14.90
2023-03-30T08:35:18.014Z,13.33
2023-03-30T08:38:19.449Z,13.53
2023-03-30T08:41:29.915Z,9.37
2023-03-30T08:44:40.662Z,9.67
2023-03-30T08:47:47.914Z,8.87
2023-03-30T08:50:58.609Z,9.90
2023-03-30T08:54:05.331Z,11.97
2023-03-30T08:57:24.845Z,11.00
2023-03-30T09:00:32.577Z,13.57
2023-03-30T09:03:45.240Z,12.67
2023-03-30T09:06:52.751Z,9.40
2023-03-30T09:09:57.004Z,9.10
2023-03-30T09:13:02.145Z,13.80
2023-03-30T09:16:28.083Z,10.13
2023-03-30T09:19:42.191Z,13.67
2023-03-30T09:22:45.498Z,8.00
2023-03-30T09:26:01.126Z,5.97
2023-03-30T09:29:16.634Z,8.00
2023-03-30T09:32:31.056Z,6.93
2023-03-30T09:35:40.544Z,10.00
2023-03-30T09:38:43.072Z,7.77
2023-03-30T09:42:18.593Z,10.57
2023-03-30T09:45:21.921Z,8.70
2023-03-30T09:48:23.767Z,8.23
2023-03-30T09:51:30.706Z,7.10
2023-03-30T09:54:41.261Z,6.37
2023-03-30T09:57:42.711Z,7.03
2023-03-30T10:00:44.959Z,11.67
2023-03-30T10:04:07.054Z,8.60
2023-03-30T10:07:22.238Z,7.80
2023-03-30T10:10:29.115Z,6.47
2023-03-30T10:13:33.561Z,9.23
2023-03-30T10:16:35.408Z,6.07
2023-03-30T10:19:45.948Z,11.77
2023-03-30T10:22:55.859Z,8.73
2023-03-30T10:26:03.729Z,6.83
2023-03-30T10:29:07.925Z,8.17
2023-03-30T10:32:19.209Z,6.93
2023-03-30T10:35:26.274Z,7.83
2023-03-30T10:38:33.100Z,10.80
2023-03-30T10:41:37.556Z,6.80
2023-03-30T10:44:47.883Z,8.67
2023-03-30T10:48:14.298Z,5.03
2023-03-30T10:51:32.512Z,6.70
2023-03-30T10:54:40.593Z,7.07
2023-03-30T10:58:14.094Z,5.23
2023-03-30T11:01:34.819Z,9.40
2023-03-30T11:04:46.968Z,4.60
2023-03-30T11:08:01.193Z,5.70
2023-03-30T11:11:03.157Z,7.90
2023-03-30T11:14:14.431Z,7.07
2023-03-30T11:17:44.318Z,6.53
2023-03-30T11:20:53.274Z,5.97
2023-03-30T11:23:57.365Z,10.60
2023-03-30T11:27:22.266Z,7.00
2023-03-30T11:30:31.424Z,4.00
2023-03-30T11:33:38.871Z,5.20
2023-03-30T11:36:49.522Z,4.40
2023-03-30T11:40:13.250Z,9.30
2023-03-30T11:43:20.331Z,5.00
2023-03-30T11:46:27.797Z,6.87
2023-03-30T11:49:29.311Z,4.03
2023-03-30T11:52:43.582Z,5.60
2023-03-30T11:56:05.522Z,9.47
2023-03-30T11:59:33.159Z,5.80
2023-03-30T12:03:19.496Z,5.17
2023-03-30T12:06:31.514Z,4.60
2023-03-30T12:09:41.340Z,6.87
2023-03-30T12:12:44.127Z,5.07
2023-03-30T12:15:55.383Z,4.40
2023-03-30T12:19:24.671Z,5.07
2023-03-30T12:22:58.460Z,5.20
2023-03-30T12:26:02.979Z,5.63
2023-03-30T12:29:44.505Z,6.40
2023-03-30T12:32:29.924Z,3.53
2023-03-30T12:35:49.847Z,6.10
2023-03-30T12:38:53.733Z,6.53
2023-03-30T12:42:07.726Z,7.23
2023-03-30T12:45:15.036Z,4.83
2023-03-30T12:48:38.741Z,5.37
2023-03-30T12:51:55.521Z,5.27
2023-03-30T12:55:28.838Z,5.43
2023-03-30T12:58:57.255Z,6.53
2023-03-30T13:02:26.778Z,5.23
2023-03-30T13:05:38.621Z,5.37
2023-03-30T13:08:42.058Z,6.37
2023-03-30T13:12:20.224Z,5.30
2023-03-30T13:15:57.864Z,4.40
2023-03-30T13:19:13.815Z,5.37
2023-03-30T13:22:15.611Z,4.70
2023-03-30T13:25:19.980Z,3.50
2023-03-30T13:28:54.898Z,3.70
2023-03-30T13:32:07.441Z,5.93
2023-03-30T13:35:18.034Z,3.80
2023-03-30T13:38:39.987Z,3.77
2023-03-30T13:41:54.622Z,5.73
2023-03-30T13:45:28.516Z,3.50
2023-03-30T13:48:54.912Z,4.40
2023-03-30T13:52:11.977Z,4.80
2023-03-30T13:55:22.429Z,4.07
2023-03-30T13:58:33.745Z,3.80
2023-03-30T14:01:39.590Z,3.50
2023-03-30T14:04:41.211Z,4.83
2023-03-30T14:07:46.597Z,8.43
2023-03-30T14:10:51.159Z,3.73
2023-03-30T14:13:53.654Z,4.80
2023-03-30T14:16:57.436Z,6.23
2023-03-30T14:20:18.135Z,3.07
2023-03-30T14:23:48.638Z,3.20
2023-03-30T14:26:50.288Z,3.63
2023-03-30T14:29:52.747Z,5.57
2023-03-30T14:33:06.814Z,4.10
2023-03-30T14:36:11.929Z,2.90
2023-03-30T14:39:14.697Z,3.97
2023-03-30T14:42:21.270Z,3.10
2023-03-30T14:45:22.723Z,4.43
2023-03-30T14:48:29.873Z,1.90
2023-03-30T14:51:39.395Z,4.87
2023-03-30T14:54:51.379Z,3.73
2023-03-30T14:57:59.417Z,4.60
2023-03-30T15:01:09.170Z,3.30
2023-03-30T15:04:15.093Z,3.13
2023-03-30T15:07:17.590Z,3.17
2023-03-30T15:10:33.351Z,5.73
2023-03-30T15:13:46.806Z,5.00
2023-03-30T15:16:53.381Z,5.77
2023-03-30T15:19:57.962Z,2.83
2023-03-30T15:23:00.180Z,3.90
2023-03-30T15:26:04.940Z,4.60
2023-03-30T15:29:06.516Z,3.57
2023-03-30T15:32:15.403Z,6.40
2023-03-30T15:35:43.147Z,4.83
2023-03-30T15:38:53.885Z,3.90
2023-03-30T15:42:01.356Z,5.70
2023-03-30T15:45:13.920Z,3.67
2023-03-30T15:48:40.815Z,3.80
2023-03-30T15:51:47.378Z,4.73
2023-03-30T15:54:55.156Z,3.37
2023-03-30T15:57:56.754Z,3.20
2023-03-30T16:00:58.292Z,2.70
2023-03-30T16:04:00.910Z,3.07
2023-03-30T16:07:08.080Z,5.20
2023-03-30T16:10:20.603Z,4.53
2023-03-30T16:13:22.682Z,6.63
2023-03-30T16:16:24.678Z,5.20
2023-03-30T16:19:26.349Z,3.00
2023-03-30T16:22:27.776Z,3.43
2023-03-30T16:28:33.455Z,5.17
2023-03-30T16:31:35.350Z,3.43
2023-03-30T16:34:36.927Z,5.60
2023-03-30T16:37:38.688Z,3.40
2023-03-30T16:40:43.273Z,4.43
2023-03-30T16:43:44.799Z,4.63
2023-03-30T16:46:47.498Z,3.87
2023-03-30T16:49:48.924Z,5.27
2023-03-30T16:52:51.039Z,3.80
2023-03-30T16:55:52.493Z,3.93
2023-03-30T16:58:53.884Z,4.40
2023-03-30T17:01:55.247Z,4.37
2023-03-30T17:04:56.668Z,6.17
2023-03-30T17:08:06.969Z,6.23
2023-03-30T17:11:10.772Z,4.60
2023-03-30T17:14:12.899Z,7.10
2023-03-30T17:17:14.284Z,4.83
2023-03-30T17:20:36.849Z,4.07
2023-03-30T17:23:38.247Z,4.50
2023-03-30T17:26:39.938Z,7.10
2023-03-30T17:29:41.367Z,4.20
2023-03-30T17:32:43.450Z,4.40
2023-03-30T17:35:49.498Z,5.83
2023-03-30T17:38:51.777Z,3.13
2023-03-30T17:41:53.592Z,3.80
2023-03-30T17:44:54.992Z,5.33
2023-03-30T17:47:57.042Z,7.63
2023-03-30T17:50:58.498Z,4.20
2023-03-30T17:53:59.904Z,4.40
2023-03-30T17:57:01.337Z,6.00
2023-03-30T18:00:11.304Z,8.53
2023-03-30T18:03:17.100Z,6.57
2023-03-30T18:06:18.716Z,7.63
2023-03-30T18:09:20.101Z,4.67
2023-03-30T18:12:21.584Z,4.07
2023-03-30T18:15:27.661Z,9.23
2023-03-30T18:18:30.439Z,4.67
2023-03-30T18:21:31.977Z,4.07
2023-03-30T18:24:33.355Z,6.40
2023-03-30T18:27:34.846Z,4.27
2023-03-30T18:30:37.645Z,3.80
2023-03-30T18:33:39.441Z,5.30
2023-03-30T18:36:42.077Z,4.87
2023-03-30T18:39:45.598Z,3.20
2023-03-30T18:42:47.250Z,4.93
2023-03-30T18:45:50.367Z,5.87
2023-03-30T18:48:51.869Z,7.20
2023-03-30T18:51:53.382Z,4.67
2023-03-30T18:54:54.848Z,5.23
2023-03-30T18:57:57.821Z,6.23
2023-03-30T19:00:59.920Z,3.67
2023-03-30T19:04:01.314Z,7.60
2023-03-30T19:07:02.673Z,5.23
2023-03-30T19:10:04.436Z,6.80
2023-03-30T19:13:05.887Z,3.33
2023-03-30T19:16:09.038Z,5.63
2023-03-30T19:19:14.915Z,4.17
2023-03-30T19:22:17.034Z,3.60
2023-03-30T19:25:19.809Z,7.00
2023-03-30T19:28:21.501Z,5.33
2023-03-30T19:31:23.034Z,5.03
2023-03-30T19:34:24.851Z,3.43
2023-03-30T19:37:26.245Z,3.97
2023-03-30T19:40:27.962Z,4.47
2023-03-30T19:43:30.209Z,3.00
2023-03-30T19:46:31.716Z,4.77
2023-03-30T19:49:33.186Z,2.67
2023-03-30T19:52:34.666Z,2.83
2023-03-30T19:55:37.040Z,3.80
2023-03-30T19:58:38.792Z,3.87
2023-03-30T20:01:40.270Z,6.33
2023-03-30T20:04:42.347Z,5.17
2023-03-30T20:07:45.319Z,7.47
2023-03-30T20:10:49.121Z,5.13
2023-03-30T20:13:51.626Z,7.43
2023-03-30T20:16:53.017Z,5.13
2023-03-30T20:19:54.451Z,2.90
2023-03-30T20:22:56.464Z,2.17
2023-03-30T20:26:02.771Z,3.57
2023-03-30T20:29:04.215Z,5.80
2023-03-30T20:32:05.775Z,3.47
2023-03-30T20:35:07.835Z,3.27
2023-03-30T20:38:09.556Z,2.80
2023-03-30T20:41:11.673Z,5.87
2023-03-30T20:44:13.153Z,4.10
2023-03-30T20:47:17.450Z,4.63
2023-03-30T20:50:18.827Z,4.17
2023-03-30T20:53:20.216Z,5.93
2023-03-30T20:56:21.800Z,5.23
2023-03-30T20:59:23.265Z,5.50
2023-03-30T21:02:24.760Z,5.27
2023-03-30T21:05:26.311Z,4.77
2023-03-30T21:08:27.841Z,7.57
2023-03-30T21:11:31.678Z,3.90
2023-03-30T21:14:33.038Z,4.33
2023-03-30T21:17:34.510Z,5.97
2023-03-30T21:20:36.397Z,7.57
2023-03-30T21:23:40.009Z,5.43
2023-03-30T21:26:41.569Z,7.47
2023-03-30T21:29:42.960Z,5.10
2023-03-30T21:32:44.372Z,4.80
2023-03-30T21:35:50.912Z,5.77
2023-03-30T21:38:52.302Z,6.37
2023-03-30T21:41:53.766Z,7.07
2023-03-30T21:44:55.240Z,5.90
2023-03-30T21:47:56.758Z,6.13
2023-03-30T21:51:00.370Z,4.33
2023-03-30T21:54:01.778Z,3.37
2023-03-30T21:57:03.240Z,3.80
2023-03-30T22:00:09.891Z,4.27
2023-03-30T22:03:14.983Z,2.47
2023-03-30T22:06:17.351Z,2.97
2023-03-30T22:09:18.763Z,3.50
2023-03-30T22:12:20.442Z,2.80
2023-03-30T22:15:21.900Z,5.50
2023-03-30T22:18:23.500Z,4.80
2023-03-30T22:21:28.991Z,7.47
2023-03-30T22:24:30.409Z,4.80
2023-03-30T22:27:32.678Z,4.33
2023-03-30T22:30:34.913Z,3.17
2023-03-30T22:33:36.311Z,5.10
2023-03-30T22:36:37.694Z,3.53
2023-03-30T22:39:39.249Z,3.40
2023-03-30T22:42:40.754Z,4.13
2023-03-30T22:45:43.151Z,6.53
2023-03-30T22:48:45.102Z,5.23
2023-03-30T22:51:52.471Z,2.63
2023-03-30T22:54:54.463Z,2.40
2023-03-30T22:57:56.938Z,4.07
2023-03-30T23:01:02.219Z,4.73
2023-03-30T23:04:05.570Z,3.20
2023-03-30T23:07:08.032Z,5.53
2023-03-30T23:10:11.679Z,4.53
2023-03-30T23:13:13.870Z,4.60
2023-03-30T23:16:15.391Z,8.10
2023-03-30T23:19:16.790Z,4.20
2023-03-30T23:22:18.157Z,4.00
2023-03-30T23:25:20.812Z,5.37
2023-03-30T23:28:22.277Z,8.03
2023-03-30T23:31:26.590Z,5.43
2023-03-30T23:34:28.328Z,6.83
2023-03-30T23:37:30.277Z,5.07
2023-03-30T23:40:31.737Z,6.60
2023-03-30T23:43:33.186Z,5.60
2023-03-30T23:46:34.747Z,4.27
2023-03-30T23:49:36.294Z,8.10
2023-03-30T23:52:37.675Z,6.60
2023-03-30T23:55:41.106Z,5.57
2023-03-30T23:58:42.929Z,4.20
